sensor_id;sensor_type;location;lat;lon;timestamp;P1;durP1;ratioP1;P2;durP2;ratioP2
52126;SDS011;38120;53.176;6.614;2022-11-20T00:01:07;24.48;;;16.65;;
52126;SDS011;38120;53.176;6.614;2022-11-20T00:03:34;24.50;;;16.20;;
52126;SDS011;38120;53.176;6.614;2022-11-20T00:06:00;22.73;;;16.27;;
52126;SDS011;38120;53.176;6.614;2022-11-20T00:08:27;22.70;;;16.05;;
52126;SDS011;38120;53.176;6.614;2022-11-20T00:10:52;24.73;;;15.80;;
52126;SDS011;38120;53.176;6.614;2022-11-20T00:13:18;21.07;;;14.37;;
52126;SDS011;38120;53.176;6.614;2022-11-20T00:15:43;20.83;;;13.73;;
52126;SDS011;38120;53.176;6.614;2022-11-20T00:18:09;23.73;;;13.90;;
52126;SDS011;38120;53.176;6.614;2022-11-20T00:20:35;19.33;;;13.50;;
52126;SDS011;38120;53.176;6.614;2022-11-20T00:23:00;20.90;;;12.80;;
52126;SDS011;38120;53.176;6.614;2022-11-20T00:25:26;20.93;;;12.27;;
52126;SDS011;38120;53.176;6.614;2022-11-20T00:27:52;20.70;;;13.43;;
52126;SDS011;38120;53.176;6.614;2022-11-20T00:30:17;19.97;;;12.43;;
52126;SDS011;38120;53.176;6.614;2022-11-20T00:32:43;18.33;;;12.10;;
52126;SDS011;38120;53.176;6.614;2022-11-20T00:35:09;18.80;;;12.10;;
52126;SDS011;38120;53.176;6.614;2022-11-20T00:37:35;20.27;;;12.55;;
52126;SDS011;38120;53.176;6.614;2022-11-20T00:40:00;18.47;;;11.17;;
52126;SDS011;38120;53.176;6.614;2022-11-20T00:42:26;17.80;;;12.33;;
52126;SDS011;38120;53.176;6.614;2022-11-20T00:44:52;22.63;;;12.77;;
52126;SDS011;38120;53.176;6.614;2022-11-20T00:47:17;18.87;;;12.07;;
52126;SDS011;38120;53.176;6.614;2022-11-20T00:49:43;16.83;;;11.40;;
52126;SDS011;38120;53.176;6.614;2022-11-20T00:52:09;20.13;;;12.30;;
52126;SDS011;38120;53.176;6.614;2022-11-20T00:54:34;24.67;;;12.37;;
52126;SDS011;38120;53.176;6.614;2022-11-20T00:57:00;16.63;;;11.67;;
52126;SDS011;38120;53.176;6.614;2022-11-20T00:59:25;17.30;;;10.67;;
52126;SDS011;38120;53.176;6.614;2022-11-20T01:01:51;19.70;;;10.98;;
52126;SDS011;38120;53.176;6.614;2022-11-20T01:04:17;16.73;;;9.87;;
52126;SDS011;38120;53.176;6.614;2022-11-20T01:06:43;19.73;;;12.33;;
52126;SDS011;38120;53.176;6.614;2022-11-20T01:09:12;18.03;;;10.27;;
52126;SDS011;38120;53.176;6.614;2022-11-20T01:11:40;16.30;;;10.55;;
52126;SDS011;38120;53.176;6.614;2022-11-20T01:14:09;19.33;;;10.88;;
52126;SDS011;38120;53.176;6.614;2022-11-20T01:16:41;16.50;;;10.13;;
52126;SDS011;38120;53.176;6.614;2022-11-20T01:19:10;14.00;;;10.52;;
52126;SDS011;38120;53.176;6.614;2022-11-20T01:21:39;16.02;;;10.45;;
52126;SDS011;38120;53.176;6.614;2022-11-20T01:24:07;16.45;;;10.65;;
52126;SDS011;38120;53.176;6.614;2022-11-20T01:26:36;17.17;;;11.40;;
52126;SDS011;38120;53.176;6.614;2022-11-20T01:29:03;16.42;;;11.32;;
52126;SDS011;38120;53.176;6.614;2022-11-20T01:31:31;19.42;;;12.15;;
52126;SDS011;38120;53.176;6.614;2022-11-20T01:33:59;24.02;;;12.25;;
52126;SDS011;38120;53.176;6.614;2022-11-20T01:36:33;16.70;;;10.65;;
52126;SDS011;38120;53.176;6.614;2022-11-20T01:39:01;18.38;;;12.55;;
52126;SDS011;38120;53.176;6.614;2022-11-20T01:41:29;17.08;;;11.27;;
52126;SDS011;38120;53.176;6.614;2022-11-20T01:44:16;20.23;;;12.75;;
52126;SDS011;38120;53.176;6.614;2022-11-20T01:46:52;20.00;;;13.00;;
52126;SDS011;38120;53.176;6.614;2022-11-20T01:49:25;21.38;;;12.23;;
52126;SDS011;38120;53.176;6.614;2022-11-20T01:51:59;17.58;;;11.32;;
52126;SDS011;38120;53.176;6.614;2022-11-20T01:54:40;18.42;;;11.73;;
52126;SDS011;38120;53.176;6.614;2022-11-20T01:57:12;18.30;;;11.27;;
52126;SDS011;38120;53.176;6.614;2022-11-20T01:59:41;16.33;;;11.88;;
52126;SDS011;38120;53.176;6.614;2022-11-20T02:02:13;15.57;;;10.88;;
52126;SDS011;38120;53.176;6.614;2022-11-20T02:04:39;20.27;;;12.65;;
52126;SDS011;38120;53.176;6.614;2022-11-20T02:07:05;20.57;;;12.57;;
52126;SDS011;38120;53.176;6.614;2022-11-20T02:09:31;20.37;;;12.93;;
52126;SDS011;38120;53.176;6.614;2022-11-20T02:11:56;22.83;;;14.47;;
52126;SDS011;38120;53.176;6.614;2022-11-20T02:14:23;18.05;;;12.13;;
52126;SDS011;38120;53.176;6.614;2022-11-20T02:16:50;19.67;;;13.18;;
52126;SDS011;38120;53.176;6.614;2022-11-20T02:19:22;20.27;;;12.90;;
52126;SDS011;38120;53.176;6.614;2022-11-20T02:22:10;23.23;;;14.10;;
52126;SDS011;38120;53.176;6.614;2022-11-20T02:24:53;20.50;;;13.35;;
52126;SDS011;38120;53.176;6.614;2022-11-20T02:27:19;18.60;;;11.60;;
52126;SDS011;38120;53.176;6.614;2022-11-20T02:30:08;22.80;;;13.13;;
52126;SDS011;38120;53.176;6.614;2022-11-20T02:32:36;19.63;;;12.73;;
52126;SDS011;38120;53.176;6.614;2022-11-20T02:35:09;18.63;;;12.52;;
52126;SDS011;38120;53.176;6.614;2022-11-20T02:37:44;19.63;;;12.32;;
52126;SDS011;38120;53.176;6.614;2022-11-20T02:40:14;17.70;;;12.35;;
52126;SDS011;38120;53.176;6.614;2022-11-20T02:42:40;22.03;;;12.23;;
52126;SDS011;38120;53.176;6.614;2022-11-20T02:45:06;20.30;;;12.82;;
52126;SDS011;38120;53.176;6.614;2022-11-20T02:47:32;18.75;;;12.77;;
52126;SDS011;38120;53.176;6.614;2022-11-20T02:49:58;17.60;;;12.30;;
52126;SDS011;38120;53.176;6.614;2022-11-20T02:52:24;19.02;;;12.95;;
52126;SDS011;38120;53.176;6.614;2022-11-20T02:54:50;17.75;;;12.95;;
52126;SDS011;38120;53.176;6.614;2022-11-20T02:57:16;22.10;;;13.03;;
52126;SDS011;38120;53.176;6.614;2022-11-20T02:59:41;19.90;;;13.00;;
52126;SDS011;38120;53.176;6.614;2022-11-20T03:02:07;18.73;;;12.23;;
52126;SDS011;38120;53.176;6.614;2022-11-20T03:04:33;19.43;;;12.00;;
52126;SDS011;38120;53.176;6.614;2022-11-20T03:06:59;17.77;;;12.27;;
52126;SDS011;38120;53.176;6.614;2022-11-20T03:09:24;19.30;;;13.30;;
52126;SDS011;38120;53.176;6.614;2022-11-20T03:11:50;18.00;;;11.37;;
52126;SDS011;38120;53.176;6.614;2022-11-20T03:14:16;20.57;;;11.60;;
52126;SDS011;38120;53.176;6.614;2022-11-20T03:16:42;17.90;;;11.20;;
52126;SDS011;38120;53.176;6.614;2022-11-20T03:19:07;21.43;;;12.80;;
52126;SDS011;38120;53.176;6.614;2022-11-20T03:21:33;18.80;;;11.30;;
52126;SDS011;38120;53.176;6.614;2022-11-20T03:23:59;16.67;;;10.50;;
52126;SDS011;38120;53.176;6.614;2022-11-20T03:26:25;20.00;;;11.98;;
52126;SDS011;38120;53.176;6.614;2022-11-20T03:28:53;16.80;;;11.38;;
52126;SDS011;38120;53.176;6.614;2022-11-20T03:31:30;16.20;;;10.43;;
52126;SDS011;38120;53.176;6.614;2022-11-20T03:33:58;16.63;;;10.13;;
52126;SDS011;38120;53.176;6.614;2022-11-20T03:36:25;16.35;;;10.68;;
52126;SDS011;38120;53.176;6.614;2022-11-20T03:38:52;18.20;;;11.07;;
52126;SDS011;38120;53.176;6.614;2022-11-20T03:41:20;16.40;;;10.77;;
52126;SDS011;38120;53.176;6.614;2022-11-20T03:43:50;18.23;;;10.60;;
52126;SDS011;38120;53.176;6.614;2022-11-20T03:46:17;16.77;;;10.35;;
52126;SDS011;38120;53.176;6.614;2022-11-20T03:48:43;20.52;;;12.32;;
52126;SDS011;38120;53.176;6.614;2022-11-20T03:51:10;15.17;;;10.40;;
52126;SDS011;38120;53.176;6.614;2022-11-20T03:53:43;17.73;;;11.43;;
52126;SDS011;38120;53.176;6.614;2022-11-20T03:56:10;15.70;;;10.27;;
52126;SDS011;38120;53.176;6.614;2022-11-20T03:58:37;20.02;;;11.57;;
52126;SDS011;38120;53.176;6.614;2022-11-20T04:01:10;16.70;;;10.75;;
52126;SDS011;38120;53.176;6.614;2022-11-20T04:03:44;16.70;;;10.82;;
52126;SDS011;38120;53.176;6.614;2022-11-20T04:06:11;19.00;;;11.40;;
52126;SDS011;38120;53.176;6.614;2022-11-20T04:08:40;17.17;;;10.10;;
52126;SDS011;38120;53.176;6.614;2022-11-20T04:13:46;16.98;;;10.65;;
52126;SDS011;38120;53.176;6.614;2022-11-20T04:16:13;16.88;;;9.68;;
52126;SDS011;38120;53.176;6.614;2022-11-20T04:18:39;18.07;;;11.73;;
52126;SDS011;38120;53.176;6.614;2022-11-20T04:21:05;16.40;;;10.93;;
52126;SDS011;38120;53.176;6.614;2022-11-20T04:23:31;16.85;;;10.90;;
52126;SDS011;38120;53.176;6.614;2022-11-20T04:26:15;15.30;;;9.60;;
52126;SDS011;38120;53.176;6.614;2022-11-20T04:28:41;14.93;;;10.20;;
52126;SDS011;38120;53.176;6.614;2022-11-20T04:31:14;17.23;;;10.83;;
52126;SDS011;38120;53.176;6.614;2022-11-20T04:33:41;15.68;;;9.93;;
52126;SDS011;38120;53.176;6.614;2022-11-20T04:36:10;15.85;;;11.02;;
52126;SDS011;38120;53.176;6.614;2022-11-20T04:38:37;15.80;;;11.20;;
52126;SDS011;38120;53.176;6.614;2022-11-20T04:41:05;15.27;;;10.45;;
52126;SDS011;38120;53.176;6.614;2022-11-20T04:43:32;15.57;;;10.70;;
52126;SDS011;38120;53.176;6.614;2022-11-20T04:45:58;15.80;;;10.35;;
52126;SDS011;38120;53.176;6.614;2022-11-20T04:48:25;14.63;;;10.27;;
52126;SDS011;38120;53.176;6.614;2022-11-20T04:50:52;17.08;;;10.80;;
52126;SDS011;38120;53.176;6.614;2022-11-20T04:53:18;14.48;;;9.27;;
52126;SDS011;38120;53.176;6.614;2022-11-20T04:55:44;15.02;;;9.75;;
52126;SDS011;38120;53.176;6.614;2022-11-20T04:58:10;17.90;;;10.43;;
52126;SDS011;38120;53.176;6.614;2022-11-20T05:00:35;17.90;;;10.13;;
52126;SDS011;38120;53.176;6.614;2022-11-20T05:03:01;19.87;;;12.00;;
52126;SDS011;38120;53.176;6.614;2022-11-20T05:05:27;17.25;;;10.77;;
52126;SDS011;38120;53.176;6.614;2022-11-20T05:07:55;16.47;;;9.27;;
52126;SDS011;38120;53.176;6.614;2022-11-20T05:10:22;17.50;;;10.77;;
52126;SDS011;38120;53.176;6.614;2022-11-20T05:12:49;15.40;;;10.10;;
52126;SDS011;38120;53.176;6.614;2022-11-20T05:15:14;19.47;;;11.23;;
52126;SDS011;38120;53.176;6.614;2022-11-20T05:17:40;17.07;;;10.30;;
52126;SDS011;38120;53.176;6.614;2022-11-20T05:20:06;16.37;;;9.90;;
52126;SDS011;38120;53.176;6.614;2022-11-20T05:22:32;16.02;;;10.07;;
52126;SDS011;38120;53.176;6.614;2022-11-20T05:24:58;15.47;;;10.57;;
52126;SDS011;38120;53.176;6.614;2022-11-20T05:27:23;14.80;;;10.10;;
52126;SDS011;38120;53.176;6.614;2022-11-20T05:29:49;14.83;;;9.87;;
52126;SDS011;38120;53.176;6.614;2022-11-20T05:32:15;16.73;;;11.30;;
52126;SDS011;38120;53.176;6.614;2022-11-20T05:34:40;15.87;;;11.00;;
52126;SDS011;38120;53.176;6.614;2022-11-20T05:37:06;16.60;;;9.53;;
52126;SDS011;38120;53.176;6.614;2022-11-20T05:39:31;16.47;;;10.73;;
52126;SDS011;38120;53.176;6.614;2022-11-20T05:41:57;15.57;;;10.13;;
52126;SDS011;38120;53.176;6.614;2022-11-20T05:44:41;14.52;;;9.82;;
52126;SDS011;38120;53.176;6.614;2022-11-20T05:47:07;17.30;;;9.57;;
52126;SDS011;38120;53.176;6.614;2022-11-20T05:49:33;13.47;;;9.80;;
52126;SDS011;38120;53.176;6.614;2022-11-20T05:51:58;13.52;;;8.70;;
52126;SDS011;38120;53.176;6.614;2022-11-20T05:54:24;16.50;;;11.20;;
52126;SDS011;38120;53.176;6.614;2022-11-20T05:56:50;13.97;;;9.40;;
52126;SDS011;38120;53.176;6.614;2022-11-20T05:59:15;18.67;;;9.23;;
52126;SDS011;38120;53.176;6.614;2022-11-20T06:01:41;17.03;;;10.60;;
52126;SDS011;38120;53.176;6.614;2022-11-20T06:04:07;16.92;;;11.15;;
52126;SDS011;38120;53.176;6.614;2022-11-20T06:06:33;14.27;;;10.13;;
52126;SDS011;38120;53.176;6.614;2022-11-20T06:08:59;14.90;;;10.45;;
52126;SDS011;38120;53.176;6.614;2022-11-20T06:11:25;16.03;;;9.53;;
52126;SDS011;38120;53.176;6.614;2022-11-20T06:13:50;15.57;;;10.47;;
52126;SDS011;38120;53.176;6.614;2022-11-20T06:16:18;13.47;;;10.10;;
52126;SDS011;38120;53.176;6.614;2022-11-20T06:18:45;17.85;;;8.90;;
52126;SDS011;38120;53.176;6.614;2022-11-20T06:21:18;13.45;;;9.27;;
52126;SDS011;38120;53.176;6.614;2022-11-20T06:23:45;13.48;;;8.60;;
52126;SDS011;38120;53.176;6.614;2022-11-20T06:26:12;14.55;;;9.05;;
52126;SDS011;38120;53.176;6.614;2022-11-20T06:28:41;12.82;;;9.20;;
52126;SDS011;38120;53.176;6.614;2022-11-20T06:31:07;14.33;;;9.33;;
52126;SDS011;38120;53.176;6.614;2022-11-20T06:33:35;12.77;;;8.40;;
52126;SDS011;38120;53.176;6.614;2022-11-20T06:36:01;19.07;;;10.37;;
52126;SDS011;38120;53.176;6.614;2022-11-20T06:38:27;12.57;;;8.55;;
52126;SDS011;38120;53.176;6.614;2022-11-20T06:40:54;14.73;;;9.23;;
52126;SDS011;38120;53.176;6.614;2022-11-20T06:43:20;12.90;;;9.00;;
52126;SDS011;38120;53.176;6.614;2022-11-20T06:45:50;16.52;;;9.10;;
52126;SDS011;38120;53.176;6.614;2022-11-20T06:48:20;14.23;;;9.07;;
52126;SDS011;38120;53.176;6.614;2022-11-20T06:50:46;13.75;;;9.07;;
52126;SDS011;38120;53.176;6.614;2022-11-20T06:53:12;15.73;;;9.10;;
52126;SDS011;38120;53.176;6.614;2022-11-20T06:55:41;11.80;;;7.57;;
52126;SDS011;38120;53.176;6.614;2022-11-20T06:58:08;11.68;;;7.95;;
52126;SDS011;38120;53.176;6.614;2022-11-20T07:00:34;14.27;;;8.82;;
52126;SDS011;38120;53.176;6.614;2022-11-20T07:03:03;14.00;;;8.73;;
52126;SDS011;38120;53.176;6.614;2022-11-20T07:05:29;16.60;;;9.18;;
52126;SDS011;38120;53.176;6.614;2022-11-20T07:07:55;17.70;;;10.03;;
52126;SDS011;38120;53.176;6.614;2022-11-20T07:10:21;15.77;;;10.23;;
52126;SDS011;38120;53.176;6.614;2022-11-20T07:12:51;10.53;;;7.97;;
52126;SDS011;38120;53.176;6.614;2022-11-20T07:15:17;12.75;;;8.40;;
52126;SDS011;38120;53.176;6.614;2022-11-20T07:20:10;13.07;;;8.65;;
52126;SDS011;38120;53.176;6.614;2022-11-20T07:22:36;17.00;;;9.65;;
52126;SDS011;38120;53.176;6.614;2022-11-20T07:25:01;14.23;;;9.23;;
52126;SDS011;38120;53.176;6.614;2022-11-20T07:27:28;14.43;;;9.38;;
52126;SDS011;38120;53.176;6.614;2022-11-20T07:32:20;13.18;;;8.30;;
52126;SDS011;38120;53.176;6.614;2022-11-20T07:34:47;14.68;;;8.40;;
52126;SDS011;38120;53.176;6.614;2022-11-20T07:37:13;13.03;;;8.27;;
52126;SDS011;38120;53.176;6.614;2022-11-20T07:39:39;13.90;;;8.20;;
52126;SDS011;38120;53.176;6.614;2022-11-20T07:42:08;12.77;;;7.67;;
52126;SDS011;38120;53.176;6.614;2022-11-20T07:44:34;13.25;;;8.00;;
52126;SDS011;38120;53.176;6.614;2022-11-20T07:47:00;13.57;;;8.97;;
52126;SDS011;38120;53.176;6.614;2022-11-20T07:49:26;14.65;;;8.07;;
52126;SDS011;38120;53.176;6.614;2022-11-20T07:51:52;12.13;;;8.17;;
52126;SDS011;38120;53.176;6.614;2022-11-20T07:54:19;12.88;;;8.18;;
52126;SDS011;38120;53.176;6.614;2022-11-20T07:59:11;11.15;;;8.10;;
52126;SDS011;38120;53.176;6.614;2022-11-20T08:01:37;14.17;;;9.10;;
52126;SDS011;38120;53.176;6.614;2022-11-20T08:04:03;11.75;;;7.85;;
52126;SDS011;38120;53.176;6.614;2022-11-20T08:06:29;13.13;;;8.63;;
52126;SDS011;38120;53.176;6.614;2022-11-20T08:08:55;12.87;;;8.90;;
52126;SDS011;38120;53.176;6.614;2022-11-20T08:11:21;14.00;;;8.30;;
52126;SDS011;38120;53.176;6.614;2022-11-20T08:14:05;19.30;;;9.18;;
52126;SDS011;38120;53.176;6.614;2022-11-20T08:16:36;13.07;;;8.00;;
52126;SDS011;38120;53.176;6.614;2022-11-20T08:19:10;13.65;;;9.00;;
52126;SDS011;38120;53.176;6.614;2022-11-20T08:21:37;12.80;;;8.57;;
52126;SDS011;38120;53.176;6.614;2022-11-20T08:24:03;12.65;;;8.60;;
52126;SDS011;38120;53.176;6.614;2022-11-20T08:26:29;10.90;;;8.05;;
52126;SDS011;38120;53.176;6.614;2022-11-20T08:28:55;15.80;;;9.73;;
52126;SDS011;38120;53.176;6.614;2022-11-20T08:31:22;16.85;;;9.73;;
52126;SDS011;38120;53.176;6.614;2022-11-20T08:33:48;14.48;;;9.48;;
52126;SDS011;38120;53.176;6.614;2022-11-20T08:36:14;12.52;;;8.25;;
52126;SDS011;38120;53.176;6.614;2022-11-20T08:38:40;13.17;;;8.30;;
52126;SDS011;38120;53.176;6.614;2022-11-20T08:41:06;14.37;;;8.77;;
52126;SDS011;38120;53.176;6.614;2022-11-20T08:46:27;14.48;;;10.02;;
52126;SDS011;38120;53.176;6.614;2022-11-20T08:48:58;13.18;;;8.52;;
52126;SDS011;38120;53.176;6.614;2022-11-20T08:51:23;14.43;;;9.37;;
52126;SDS011;38120;53.176;6.614;2022-11-20T08:53:49;13.93;;;8.13;;
52126;SDS011;38120;53.176;6.614;2022-11-20T08:56:15;13.10;;;8.13;;
52126;SDS011;38120;53.176;6.614;2022-11-20T08:58:41;14.45;;;8.63;;
52126;SDS011;38120;53.176;6.614;2022-11-20T09:01:07;12.70;;;8.27;;
52126;SDS011;38120;53.176;6.614;2022-11-20T09:03:33;16.43;;;8.93;;
52126;SDS011;38120;53.176;6.614;2022-11-20T09:06:03;15.23;;;8.90;;
52126;SDS011;38120;53.176;6.614;2022-11-20T09:08:30;12.20;;;7.85;;
52126;SDS011;38120;53.176;6.614;2022-11-20T09:10:57;14.90;;;9.13;;
52126;SDS011;38120;53.176;6.614;2022-11-20T09:13:23;13.02;;;9.00;;
52126;SDS011;38120;53.176;6.614;2022-11-20T09:15:54;12.40;;;8.50;;
52126;SDS011;38120;53.176;6.614;2022-11-20T09:18:24;13.75;;;7.93;;
52126;SDS011;38120;53.176;6.614;2022-11-20T09:20:51;13.52;;;8.70;;
52126;SDS011;38120;53.176;6.614;2022-11-20T09:23:21;15.98;;;8.73;;
52126;SDS011;38120;53.176;6.614;2022-11-20T09:25:46;13.07;;;8.60;;
52126;SDS011;38120;53.176;6.614;2022-11-20T09:28:12;10.87;;;7.60;;
52126;SDS011;38120;53.176;6.614;2022-11-20T09:30:38;11.50;;;7.70;;
52126;SDS011;38120;53.176;6.614;2022-11-20T09:33:04;20.08;;;8.90;;
52126;SDS011;38120;53.176;6.614;2022-11-20T09:37:57;11.63;;;7.45;;
52126;SDS011;38120;53.176;6.614;2022-11-20T09:40:23;11.27;;;7.60;;
52126;SDS011;38120;53.176;6.614;2022-11-20T09:42:59;12.77;;;8.35;;
52126;SDS011;38120;53.176;6.614;2022-11-20T09:45:35;13.30;;;8.05;;
52126;SDS011;38120;53.176;6.614;2022-11-20T09:50:32;13.70;;;8.60;;
52126;SDS011;38120;53.176;6.614;2022-11-20T09:55:49;13.25;;;8.38;;
52126;SDS011;38120;53.176;6.614;2022-11-20T09:58:34;12.90;;;7.83;;
52126;SDS011;38120;53.176;6.614;2022-11-20T10:01:15;12.20;;;7.30;;
52126;SDS011;38120;53.176;6.614;2022-11-20T10:08:56;12.45;;;8.32;;
52126;SDS011;38120;53.176;6.614;2022-11-20T10:17:28;14.07;;;7.80;;
52126;SDS011;38120;53.176;6.614;2022-11-20T10:20:02;10.25;;;7.18;;
52126;SDS011;38120;53.176;6.614;2022-11-20T10:25:37;14.02;;;7.43;;
52126;SDS011;38120;53.176;6.614;2022-11-20T10:33:58;12.05;;;7.03;;
52126;SDS011;38120;53.176;6.614;2022-11-20T10:36:31;11.07;;;6.65;;
52126;SDS011;38120;53.176;6.614;2022-11-20T10:39:36;10.85;;;7.45;;
52126;SDS011;38120;53.176;6.614;2022-11-20T10:42:00;12.65;;;7.82;;
52126;SDS011;38120;53.176;6.614;2022-11-20T10:44:26;12.50;;;7.70;;
52126;SDS011;38120;53.176;6.614;2022-11-20T10:47:16;11.20;;;7.15;;
52126;SDS011;38120;53.176;6.614;2022-11-20T10:49:44;13.25;;;8.82;;
52126;SDS011;38120;53.176;6.614;2022-11-20T11:00:25;10.60;;;6.18;;
52126;SDS011;38120;53.176;6.614;2022-11-20T11:02:51;12.90;;;7.17;;
52126;SDS011;38120;53.176;6.614;2022-11-20T11:08:09;14.50;;;7.35;;
52126;SDS011;38120;53.176;6.614;2022-11-20T11:13:20;11.77;;;6.72;;
52126;SDS011;38120;53.176;6.614;2022-11-20T11:15:50;11.18;;;6.80;;
52126;SDS011;38120;53.176;6.614;2022-11-20T11:20:54;9.50;;;6.10;;
52126;SDS011;38120;53.176;6.614;2022-11-20T11:23:39;11.70;;;6.40;;
52126;SDS011;38120;53.176;6.614;2022-11-20T11:26:17;11.93;;;6.97;;
52126;SDS011;38120;53.176;6.614;2022-11-20T11:31:26;12.20;;;6.65;;
52126;SDS011;38120;53.176;6.614;2022-11-20T11:34:06;10.52;;;6.63;;
52126;SDS011;38120;53.176;6.614;2022-11-20T11:36:33;12.15;;;7.10;;
52126;SDS011;38120;53.176;6.614;2022-11-20T11:39:00;14.20;;;7.30;;
52126;SDS011;38120;53.176;6.614;2022-11-20T11:41:28;12.00;;;7.60;;
52126;SDS011;38120;53.176;6.614;2022-11-20T11:44:00;11.63;;;6.90;;
52126;SDS011;38120;53.176;6.614;2022-11-20T11:46:57;14.25;;;7.93;;
52126;SDS011;38120;53.176;6.614;2022-11-20T11:49:23;13.23;;;7.50;;
52126;SDS011;38120;53.176;6.614;2022-11-20T11:54:25;11.10;;;7.25;;
52126;SDS011;38120;53.176;6.614;2022-11-20T11:56:55;13.55;;;7.80;;
52126;SDS011;38120;53.176;6.614;2022-11-20T11:59:34;14.35;;;8.15;;
52126;SDS011;38120;53.176;6.614;2022-11-20T12:02:29;11.30;;;8.20;;
52126;SDS011;38120;53.176;6.614;2022-11-20T12:05:28;12.02;;;8.55;;
52126;SDS011;38120;53.176;6.614;2022-11-20T12:16:33;9.27;;;5.25;;
52126;SDS011;38120;53.176;6.614;2022-11-20T12:19:02;9.40;;;6.00;;
52126;SDS011;38120;53.176;6.614;2022-11-20T12:29:43;8.65;;;5.22;;
52126;SDS011;38120;53.176;6.614;2022-11-20T12:32:22;8.60;;;5.22;;
52126;SDS011;38120;53.176;6.614;2022-11-20T12:35:17;7.55;;;5.30;;
52126;SDS011;38120;53.176;6.614;2022-11-20T12:43:33;7.88;;;4.90;;
52126;SDS011;38120;53.176;6.614;2022-11-20T13:00:07;8.50;;;5.13;;
52126;SDS011;38120;53.176;6.614;2022-11-20T13:07:50;8.75;;;4.80;;
52126;SDS011;38120;53.176;6.614;2022-11-20T13:10:20;7.43;;;4.30;;
52126;SDS011;38120;53.176;6.614;2022-11-20T13:12:49;7.47;;;4.63;;
52126;SDS011;38120;53.176;6.614;2022-11-20T13:18:00;8.65;;;5.63;;
52126;SDS011;38120;53.176;6.614;2022-11-20T13:20:28;8.82;;;5.28;;
52126;SDS011;38120;53.176;6.614;2022-11-20T13:22:55;8.65;;;5.28;;
52126;SDS011;38120;53.176;6.614;2022-11-20T13:27:55;8.07;;;5.10;;
52126;SDS011;38120;53.176;6.614;2022-11-20T13:30:24;9.93;;;5.35;;
52126;SDS011;38120;53.176;6.614;2022-11-20T13:32:54;9.18;;;5.30;;
52126;SDS011;38120;53.176;6.614;2022-11-20T13:35:29;10.65;;;6.10;;
52126;SDS011;38120;53.176;6.614;2022-11-20T13:38:20;10.38;;;6.25;;
52126;SDS011;38120;53.176;6.614;2022-11-20T13:40:55;9.00;;;4.95;;
52126;SDS011;38120;53.176;6.614;2022-11-20T13:43:40;9.82;;;5.60;;
52126;SDS011;38120;53.176;6.614;2022-11-20T13:46:07;10.02;;;5.65;;
52126;SDS011;38120;53.176;6.614;2022-11-20T13:48:47;10.02;;;6.05;;
52126;SDS011;38120;53.176;6.614;2022-11-20T13:51:15;9.68;;;5.82;;
52126;SDS011;38120;53.176;6.614;2022-11-20T13:56:40;8.65;;;5.97;;
52126;SDS011;38120;53.176;6.614;2022-11-20T14:02:01;12.57;;;6.07;;
52126;SDS011;38120;53.176;6.614;2022-11-20T14:04:33;12.57;;;7.15;;
52126;SDS011;38120;53.176;6.614;2022-11-20T14:07:00;11.13;;;6.78;;
52126;SDS011;38120;53.176;6.614;2022-11-20T14:09:31;15.15;;;7.18;;
52126;SDS011;38120;53.176;6.614;2022-11-20T14:11:58;9.13;;;6.50;;
52126;SDS011;38120;53.176;6.614;2022-11-20T14:14:27;11.05;;;6.35;;
52126;SDS011;38120;53.176;6.614;2022-11-20T14:17:07;7.88;;;5.00;;
52126;SDS011;38120;53.176;6.614;2022-11-20T14:19:41;8.23;;;5.50;;
52126;SDS011;38120;53.176;6.614;2022-11-20T14:22:22;11.55;;;5.15;;
52126;SDS011;38120;53.176;6.614;2022-11-20T14:25:35;8.55;;;5.60;;
52126;SDS011;38120;53.176;6.614;2022-11-20T14:27:42;11.82;;;6.40;;
52126;SDS011;38120;53.176;6.614;2022-11-20T14:30:13;8.25;;;4.93;;
52126;SDS011;38120;53.176;6.614;2022-11-20T14:32:40;9.13;;;5.47;;
52126;SDS011;38120;53.176;6.614;2022-11-20T14:35:09;8.43;;;5.78;;
52126;SDS011;38120;53.176;6.614;2022-11-20T14:37:38;8.93;;;6.05;;
52126;SDS011;38120;53.176;6.614;2022-11-20T14:42:51;7.97;;;5.38;;
52126;SDS011;38120;53.176;6.614;2022-11-20T14:45:17;10.50;;;6.32;;
52126;SDS011;38120;53.176;6.614;2022-11-20T14:47:44;9.35;;;5.28;;
52126;SDS011;38120;53.176;6.614;2022-11-20T14:50:16;9.95;;;5.80;;
52126;SDS011;38120;53.176;6.614;2022-11-20T14:53:00;9.90;;;6.55;;
52126;SDS011;38120;53.176;6.614;2022-11-20T14:55:31;10.48;;;6.75;;
52126;SDS011;38120;53.176;6.614;2022-11-20T14:58:24;11.75;;;6.57;;
52126;SDS011;38120;53.176;6.614;2022-11-20T15:01:00;10.43;;;6.28;;
52126;SDS011;38120;53.176;6.614;2022-11-20T15:03:36;11.32;;;6.07;;
52126;SDS011;38120;53.176;6.614;2022-11-20T15:06:03;10.80;;;7.32;;
52126;SDS011;38120;53.176;6.614;2022-11-20T15:08:30;10.35;;;6.95;;
52126;SDS011;38120;53.176;6.614;2022-11-20T15:10:56;10.07;;;6.88;;
52126;SDS011;38120;53.176;6.614;2022-11-20T15:15:55;10.32;;;6.90;;
52126;SDS011;38120;53.176;6.614;2022-11-20T15:18:23;10.45;;;7.30;;
52126;SDS011;38120;53.176;6.614;2022-11-20T15:20:53;12.93;;;7.78;;
52126;SDS011;38120;53.176;6.614;2022-11-20T15:23:21;11.70;;;8.07;;
52126;SDS011;38120;53.176;6.614;2022-11-20T15:25:47;13.43;;;8.30;;
52126;SDS011;38120;53.176;6.614;2022-11-20T15:28:18;14.32;;;8.90;;
52126;SDS011;38120;53.176;6.614;2022-11-20T15:30:46;12.88;;;7.80;;
52126;SDS011;38120;53.176;6.614;2022-11-20T15:33:13;10.27;;;7.00;;
52126;SDS011;38120;53.176;6.614;2022-11-20T15:38:06;12.10;;;8.25;;
52126;SDS011;38120;53.176;6.614;2022-11-20T15:40:32;12.82;;;8.88;;
52126;SDS011;38120;53.176;6.614;2022-11-20T15:42:57;14.20;;;9.70;;
52126;SDS011;38120;53.176;6.614;2022-11-20T15:45:40;19.20;;;9.95;;
52126;SDS011;38120;53.176;6.614;2022-11-20T15:48:12;16.30;;;9.43;;
52126;SDS011;38120;53.176;6.614;2022-11-20T15:50:49;16.98;;;8.40;;
52126;SDS011;38120;53.176;6.614;2022-11-20T15:53:21;15.57;;;8.35;;
52126;SDS011;38120;53.176;6.614;2022-11-20T15:55:47;13.57;;;8.10;;
52126;SDS011;38120;53.176;6.614;2022-11-20T15:58:13;12.02;;;8.35;;
52126;SDS011;38120;53.176;6.614;2022-11-20T16:00:41;13.40;;;7.88;;
52126;SDS011;38120;53.176;6.614;2022-11-20T16:03:11;12.77;;;7.72;;
52126;SDS011;38120;53.176;6.614;2022-11-20T16:05:38;16.05;;;8.40;;
52126;SDS011;38120;53.176;6.614;2022-11-20T16:08:03;12.50;;;8.33;;
52126;SDS011;38120;53.176;6.614;2022-11-20T16:10:29;13.98;;;9.25;;
52126;SDS011;38120;53.176;6.614;2022-11-20T16:12:55;12.17;;;8.50;;
52126;SDS011;38120;53.176;6.614;2022-11-20T16:15:40;12.45;;;8.23;;
52126;SDS011;38120;53.176;6.614;2022-11-20T16:18:12;12.70;;;8.48;;
52126;SDS011;38120;53.176;6.614;2022-11-20T16:20:43;13.73;;;7.88;;
52126;SDS011;38120;53.176;6.614;2022-11-20T16:23:09;16.17;;;8.43;;
52126;SDS011;38120;53.176;6.614;2022-11-20T16:25:36;15.10;;;8.35;;
52126;SDS011;38120;53.176;6.614;2022-11-20T16:28:02;16.63;;;9.63;;
52126;SDS011;38120;53.176;6.614;2022-11-20T16:30:28;13.68;;;8.98;;
52126;SDS011;38120;53.176;6.614;2022-11-20T16:32:55;13.88;;;9.25;;
52126;SDS011;38120;53.176;6.614;2022-11-20T16:35:20;16.23;;;9.63;;
52126;SDS011;38120;53.176;6.614;2022-11-20T16:37:46;14.23;;;9.63;;
52126;SDS011;38120;53.176;6.614;2022-11-20T16:40:12;10.53;;;7.77;;
52126;SDS011;38120;53.176;6.614;2022-11-20T16:42:37;13.13;;;9.00;;
52126;SDS011;38120;53.176;6.614;2022-11-20T16:45:03;13.43;;;9.33;;